sensor_id;sensor_type;location;lat;lon;timestamp;P1;durP1;ratioP1;P2;durP2;ratioP2
82773;SDS011;72508;45.118;20.728;2024-03-22T00:17:04;93.30;;;37.58;;
82773;SDS011;72508;45.118;20.728;2024-03-22T00:27:07;89.32;;;36.55;;
82773;SDS011;72508;45.118;20.728;2024-03-22T00:37:09;90.90;;;37.53;;
82773;SDS011;72508;45.118;20.728;2024-03-22T00:47:11;104.25;;;41.72;;
82773;SDS011;72508;45.118;20.728;2024-03-22T00:57:12;107.53;;;44.83;;
82773;SDS011;72508;45.118;20.728;2024-03-22T01:07:14;123.93;;;50.95;;
82773;SDS011;72508;45.118;20.728;2024-03-22T01:17:16;101.40;;;38.08;;
82773;SDS011;72508;45.118;20.728;2024-03-22T01:27:18;84.32;;;31.42;;
82773;SDS011;72508;45.118;20.728;2024-03-22T01:37:19;67.70;;;26.13;;
82773;SDS011;72508;45.118;20.728;2024-03-22T01:47:22;50.42;;;20.05;;
82773;SDS011;72508;45.118;20.728;2024-03-22T01:57:24;42.38;;;18.08;;
82773;SDS011;72508;45.118;20.728;2024-03-22T02:07:28;30.23;;;13.50;;
82773;SDS011;72508;45.118;20.728;2024-03-22T02:17:31;26.25;;;12.70;;
82773;SDS011;72508;45.118;20.728;2024-03-22T02:27:33;22.35;;;10.98;;
82773;SDS011;72508;45.118;20.728;2024-03-22T02:37:35;29.48;;;14.18;;
82773;SDS011;72508;45.118;20.728;2024-03-22T02:47:37;22.90;;;11.02;;
82773;SDS011;72508;45.118;20.728;2024-03-22T02:57:38;26.88;;;13.55;;
82773;SDS011;72508;45.118;20.728;2024-03-22T03:07:40;31.30;;;13.32;;
82773;SDS011;72508;45.118;20.728;2024-03-22T03:17:42;25.48;;;11.80;;
82773;SDS011;72508;45.118;20.728;2024-03-22T03:27:44;28.00;;;12.60;;
82773;SDS011;72508;45.118;20.728;2024-03-22T03:37:46;37.63;;;15.88;;
82773;SDS011;72508;45.118;20.728;2024-03-22T03:47:47;39.53;;;15.38;;
82773;SDS011;72508;45.118;20.728;2024-03-22T03:57:52;34.78;;;16.38;;
82773;SDS011;72508;45.118;20.728;2024-03-22T04:07:54;34.05;;;16.55;;
82773;SDS011;72508;45.118;20.728;2024-03-22T04:17:56;32.67;;;16.35;;
82773;SDS011;72508;45.118;20.728;2024-03-22T04:27:58;31.65;;;12.90;;
82773;SDS011;72508;45.118;20.728;2024-03-22T04:38:00;41.58;;;16.20;;
82773;SDS011;72508;45.118;20.728;2024-03-22T04:48:03;30.90;;;14.27;;
82773;SDS011;72508;45.118;20.728;2024-03-22T04:58:05;32.53;;;14.55;;
82773;SDS011;72508;45.118;20.728;2024-03-22T05:08:07;32.30;;;13.82;;
82773;SDS011;72508;45.118;20.728;2024-03-22T05:18:10;21.80;;;10.85;;
82773;SDS011;72508;45.118;20.728;2024-03-22T05:28:12;25.90;;;12.00;;
82773;SDS011;72508;45.118;20.728;2024-03-22T05:38:14;21.05;;;10.20;;
82773;SDS011;72508;45.118;20.728;2024-03-22T05:48:15;26.77;;;11.50;;
82773;SDS011;72508;45.118;20.728;2024-03-22T05:58:17;23.63;;;10.80;;
82773;SDS011;72508;45.118;20.728;2024-03-22T06:08:20;25.17;;;8.60;;
82773;SDS011;72508;45.118;20.728;2024-03-22T06:18:22;18.05;;;8.10;;
82773;SDS011;72508;45.118;20.728;2024-03-22T06:28:28;18.83;;;8.38;;
82773;SDS011;72508;45.118;20.728;2024-03-22T06:38:30;38.83;;;15.48;;
82773;SDS011;72508;45.118;20.728;2024-03-22T06:48:31;19.10;;;9.90;;
82773;SDS011;72508;45.118;20.728;2024-03-22T06:58:35;17.30;;;7.45;;
82773;SDS011;72508;45.118;20.728;2024-03-22T07:08:39;16.55;;;8.80;;
82773;SDS011;72508;45.118;20.728;2024-03-22T07:18:46;21.23;;;11.82;;
82773;SDS011;72508;45.118;20.728;2024-03-22T07:28:50;17.88;;;9.40;;
82773;SDS011;72508;45.118;20.728;2024-03-22T07:38:52;16.23;;;7.05;;
82773;SDS011;72508;45.118;20.728;2024-03-22T07:59:45;14.15;;;7.65;;
82773;SDS011;72508;45.118;20.728;2024-03-22T08:09:49;14.30;;;6.70;;
82773;SDS011;72508;45.118;20.728;2024-03-22T08:20:01;33.72;;;16.55;;
82773;SDS011;72508;45.118;20.728;2024-03-22T08:30:09;11.65;;;6.65;;
82773;SDS011;72508;45.118;20.728;2024-03-22T08:40:12;13.10;;;6.00;;
82773;SDS011;72508;45.118;20.728;2024-03-22T08:50:15;11.88;;;6.63;;
82773;SDS011;72508;45.118;20.728;2024-03-22T09:00:19;14.65;;;8.77;;
82773;SDS011;72508;45.118;20.728;2024-03-22T09:10:28;95.20;;;53.30;;
82773;SDS011;72508;45.118;20.728;2024-03-22T09:20:29;17.15;;;7.88;;
82773;SDS011;72508;45.118;20.728;2024-03-22T09:30:51;11.57;;;6.95;;
82773;SDS011;72508;45.118;20.728;2024-03-22T09:40:53;14.52;;;6.50;;
82773;SDS011;72508;45.118;20.728;2024-03-22T09:50:56;13.57;;;7.35;;
82773;SDS011;72508;45.118;20.728;2024-03-22T10:01:20;11.85;;;6.13;;
82773;SDS011;72508;45.118;20.728;2024-03-22T10:11:43;18.17;;;9.30;;
82773;SDS011;72508;45.118;20.728;2024-03-22T10:21:45;12.25;;;6.60;;
82773;SDS011;72508;45.118;20.728;2024-03-22T10:31:47;13.18;;;6.63;;
82773;SDS011;72508;45.118;20.728;2024-03-22T10:41:50;14.20;;;7.15;;
82773;SDS011;72508;45.118;20.728;2024-03-22T10:51:59;13.40;;;6.78;;
82773;SDS011;72508;45.118;20.728;2024-03-22T11:02:03;17.50;;;9.18;;
82773;SDS011;72508;45.118;20.728;2024-03-22T11:12:08;48.75;;;31.05;;
82773;SDS011;72508;45.118;20.728;2024-03-22T11:22:10;32.40;;;17.25;;
82773;SDS011;72508;45.118;20.728;2024-03-22T11:32:13;13.18;;;6.75;;
82773;SDS011;72508;45.118;20.728;2024-03-22T11:42:18;15.27;;;7.78;;
82773;SDS011;72508;45.118;20.728;2024-03-22T11:52:24;26.35;;;12.05;;
82773;SDS011;72508;45.118;20.728;2024-03-22T12:02:25;13.68;;;6.63;;
82773;SDS011;72508;45.118;20.728;2024-03-22T12:12:27;36.17;;;18.42;;
82773;SDS011;72508;45.118;20.728;2024-03-22T12:22:29;21.15;;;12.52;;
82773;SDS011;72508;45.118;20.728;2024-03-22T12:32:37;16.42;;;7.97;;
82773;SDS011;72508;45.118;20.728;2024-03-22T12:42:40;30.52;;;18.52;;
82773;SDS011;72508;45.118;20.728;2024-03-22T12:52:42;13.98;;;6.60;;
82773;SDS011;72508;45.118;20.728;2024-03-22T13:02:49;14.93;;;7.13;;
82773;SDS011;72508;45.118;20.728;2024-03-22T13:12:57;9.98;;;5.32;;
82773;SDS011;72508;45.118;20.728;2024-03-22T13:22:59;14.57;;;9.07;;
82773;SDS011;72508;45.118;20.728;2024-03-22T13:33:02;12.82;;;7.15;;
82773;SDS011;72508;45.118;20.728;2024-03-22T13:43:04;10.23;;;5.22;;
82773;SDS011;72508;45.118;20.728;2024-03-22T13:53:06;11.90;;;6.38;;
82773;SDS011;72508;45.118;20.728;2024-03-22T14:03:09;12.30;;;7.20;;
82773;SDS011;72508;45.118;20.728;2024-03-22T14:13:11;10.32;;;6.18;;
82773;SDS011;72508;45.118;20.728;2024-03-22T14:23:13;23.10;;;12.73;;
82773;SDS011;72508;45.118;20.728;2024-03-22T14:33:15;29.42;;;15.93;;
82773;SDS011;72508;45.118;20.728;2024-03-22T14:43:18;28.40;;;19.10;;
82773;SDS011;72508;45.118;20.728;2024-03-22T14:53:20;13.25;;;7.20;;
82773;SDS011;72508;45.118;20.728;2024-03-22T15:03:22;15.13;;;7.78;;
82773;SDS011;72508;45.118;20.728;2024-03-22T15:23:29;18.25;;;9.93;;
82773;SDS011;72508;45.118;20.728;2024-03-22T15:33:30;26.23;;;8.90;;
82773;SDS011;72508;45.118;20.728;2024-03-22T15:43:32;34.33;;;16.45;;
82773;SDS011;72508;45.118;20.728;2024-03-22T15:53:36;23.40;;;14.15;;
82773;SDS011;72508;45.118;20.728;2024-03-22T16:03:38;56.30;;;26.08;;
82773;SDS011;72508;45.118;20.728;2024-03-22T16:13:40;27.67;;;14.48;;
82773;SDS011;72508;45.118;20.728;2024-03-22T16:23:41;41.55;;;18.60;;
82773;SDS011;72508;45.118;20.728;2024-03-22T16:33:44;45.58;;;22.42;;
82773;SDS011;72508;45.118;20.728;2024-03-22T16:43:45;85.32;;;36.22;;
82773;SDS011;72508;45.118;20.728;2024-03-22T16:53:47;171.02;;;69.43;;
82773;SDS011;72508;45.118;20.728;2024-03-22T17:03:49;109.15;;;44.60;;
82773;SDS011;72508;45.118;20.728;2024-03-22T17:13:51;154.73;;;63.05;;
82773;SDS011;72508;45.118;20.728;2024-03-22T17:23:53;206.82;;;87.30;;
82773;SDS011;72508;45.118;20.728;2024-03-22T17:33:55;251.82;;;99.35;;
82773;SDS011;72508;45.118;20.728;2024-03-22T17:43:56;206.50;;;86.03;;
82773;SDS011;72508;45.118;20.728;2024-03-22T17:53:58;146.00;;;59.67;;
82773;SDS011;72508;45.118;20.728;2024-03-22T18:04:00;142.48;;;64.03;;
82773;SDS011;72508;45.118;20.728;2024-03-22T18:14:02;204.95;;;89.75;;
82773;SDS011;72508;45.118;20.728;2024-03-22T18:24:04;192.85;;;82.05;;
82773;SDS011;72508;45.118;20.728;2024-03-22T18:34:06;168.93;;;70.43;;
82773;SDS011;72508;45.118;20.728;2024-03-22T18:44:07;149.65;;;64.75;;
82773;SDS011;72508;45.118;20.728;2024-03-22T18:54:09;156.50;;;66.53;;
82773;SDS011;72508;45.118;20.728;2024-03-22T19:04:10;180.50;;;77.82;;
82773;SDS011;72508;45.118;20.728;2024-03-22T19:14:12;243.80;;;102.63;;
82773;SDS011;72508;45.118;20.728;2024-03-22T19:24:14;213.05;;;84.47;;
82773;SDS011;72508;45.118;20.728;2024-03-22T19:34:15;254.45;;;100.45;;
82773;SDS011;72508;45.118;20.728;2024-03-22T19:44:17;148.75;;;55.67;;
82773;SDS011;72508;45.118;20.728;2024-03-22T19:54:19;126.30;;;45.65;;
82773;SDS011;72508;45.118;20.728;2024-03-22T20:04:22;133.23;;;47.42;;
82773;SDS011;72508;45.118;20.728;2024-03-22T20:14:24;491.05;;;138.48;;
82773;SDS011;72508;45.118;20.728;2024-03-22T20:24:26;338.58;;;107.22;;
82773;SDS011;72508;45.118;20.728;2024-03-22T20:34:28;479.38;;;139.13;;
